sensor_id;sensor_type;location;lat;lon;timestamp;pressure;altitude;pressure_sealevel;temperature;humidity
35553;BME280;21656;46.054;13.614;2023-02-12T08:05:13;102285.91;;;2.86;80.95
35553;BME280;21656;46.054;13.614;2023-02-12T08:07:38;102280.38;;;2.97;81.06
35553;BME280;21656;46.054;13.614;2023-02-12T08:10:05;102271.22;;;3.10;79.33
35553;BME280;21656;46.054;13.614;2023-02-12T08:12:30;102278.03;;;3.23;79.24
35553;BME280;21656;46.054;13.614;2023-02-12T08:14:56;102272.53;;;3.34;80.24
35553;BME280;21656;46.054;13.614;2023-02-12T08:17:21;102275.03;;;3.40;80.30
35553;BME280;21656;46.054;13.614;2023-02-12T08:19:46;102272.53;;;3.34;79.05
35553;BME280;21656;46.054;13.614;2023-02-12T08:22:12;102275.03;;;3.40;78.69
35553;BME280;21656;46.054;13.614;2023-02-12T08:24:37;102282.03;;;3.46;79.08
35553;BME280;21656;46.054;13.614;2023-02-12T08:27:04;102279.13;;;3.57;78.37
35553;BME280;21656;46.054;13.614;2023-02-12T08:29:29;102278.94;;;3.64;79.05
35553;BME280;21656;46.054;13.614;2023-02-12T08:32:00;102273.25;;;3.80;79.71
35553;BME280;21656;46.054;13.614;2023-02-12T08:34:30;102275.59;;;3.95;79.72
35553;BME280;21656;46.054;13.614;2023-02-12T08:36:57;102279.81;;;4.05;78.14
35553;BME280;21656;46.054;13.614;2023-02-12T08:39:26;102282.50;;;4.04;77.35
35553;BME280;21656;46.054;13.614;2023-02-12T08:41:57;102268.81;;;4.18;77.26
35553;BME280;21656;46.054;13.614;2023-02-12T08:44:24;102278.47;;;4.23;77.14
35553;BME280;21656;46.054;13.614;2023-02-12T08:46:51;102263.56;;;4.15;76.72
35553;BME280;21656;46.054;13.614;2023-02-12T08:49:23;102279.16;;;4.31;76.61
35553;BME280;21656;46.054;13.614;2023-02-12T08:51:51;102279.06;;;4.34;73.91
35553;BME280;21656;46.054;13.614;2023-02-12T08:54:22;102270.69;;;4.50;73.78
35553;BME280;21656;46.054;13.614;2023-02-12T08:56:48;102262.47;;;4.57;73.85
35553;BME280;21656;46.054;13.614;2023-02-12T08:59:15;102270.13;;;4.71;71.95
35553;BME280;21656;46.054;13.614;2023-02-12T09:01:41;102269.59;;;4.91;69.11
35553;BME280;21656;46.054;13.614;2023-02-12T09:04:20;102274.53;;;5.05;69.55
35553;BME280;21656;46.054;13.614;2023-02-12T09:06:46;102262.56;;;5.18;68.21
35553;BME280;21656;46.054;13.614;2023-02-12T09:09:12;102262.41;;;5.25;69.34
35553;BME280;21656;46.054;13.614;2023-02-12T09:11:38;102269.88;;;5.43;69.97
35553;BME280;21656;46.054;13.614;2023-02-12T09:14:05;102266.88;;;5.54;69.40
35553;BME280;21656;46.054;13.614;2023-02-12T09:16:34;102274.16;;;5.78;66.51
35553;BME280;21656;46.054;13.614;2023-02-12T09:19:00;102267.38;;;5.96;65.10
35553;BME280;21656;46.054;13.614;2023-02-12T09:21:26;102267.59;;;6.17;60.00
35553;BME280;21656;46.054;13.614;2023-02-12T09:23:52;102262.34;;;6.40;60.15
35553;BME280;21656;46.054;13.614;2023-02-12T09:26:22;102260.03;;;6.56;58.78
35553;BME280;21656;46.054;13.614;2023-02-12T09:28:50;102265.00;;;6.67;58.41
35553;BME280;21656;46.054;13.614;2023-02-12T09:31:19;102266.28;;;6.82;59.06
35553;BME280;21656;46.054;13.614;2023-02-12T09:33:47;102273.88;;;6.94;59.24
35553;BME280;21656;46.054;13.614;2023-02-12T09:36:15;102273.38;;;7.08;58.76
35553;BME280;21656;46.054;13.614;2023-02-12T09:38:41;102285.34;;;7.46;56.28
35553;BME280;21656;46.054;13.614;2023-02-12T09:41:30;102280.72;;;7.73;54.36
35553;BME280;21656;46.054;13.614;2023-02-12T09:46:53;102292.53;;;8.57;49.08
35553;BME280;21656;46.054;13.614;2023-02-12T09:49:55;102289.53;;;8.85;48.75
35553;BME280;21656;46.054;13.614;2023-02-12T09:52:27;102291.00;;;9.13;47.52
35553;BME280;21656;46.054;13.614;2023-02-12T09:54:54;102289.28;;;9.31;48.37
35553;BME280;21656;46.054;13.614;2023-02-12T09:57:32;102289.41;;;9.67;44.60
35553;BME280;21656;46.054;13.614;2023-02-12T10:00:21;102291.34;;;10.02;41.95
35553;BME280;21656;46.054;13.614;2023-02-12T10:02:51;102303.50;;;10.10;41.60
35553;BME280;21656;46.054;13.614;2023-02-12T10:05:31;102306.28;;;10.26;39.24
35553;BME280;21656;46.054;13.614;2023-02-12T10:30:41;102321.81;;;12.55;35.18
35553;BME280;21656;46.054;13.614;2023-02-12T10:33:15;102321.13;;;13.12;34.19
35553;BME280;21656;46.054;13.614;2023-02-12T10:35:46;102310.56;;;13.52;33.16
35553;BME280;21656;46.054;13.614;2023-02-12T10:38:25;102317.38;;;13.72;33.58
35553;BME280;21656;46.054;13.614;2023-02-12T10:40:52;102313.03;;;13.84;32.32
35553;BME280;21656;46.054;13.614;2023-02-12T10:43:22;102307.88;;;14.08;31.67
35553;BME280;21656;46.054;13.614;2023-02-12T10:45:48;102321.75;;;14.30;31.98
35553;BME280;21656;46.054;13.614;2023-02-12T10:48:21;102317.38;;;14.82;30.93
35553;BME280;21656;46.054;13.614;2023-02-12T10:53:20;102321.66;;;14.99;30.93
35553;BME280;21656;46.054;13.614;2023-02-12T10:55:45;102311.88;;;15.35;30.71
35553;BME280;21656;46.054;13.614;2023-02-12T10:58:22;102315.66;;;15.58;30.29
35553;BME280;21656;46.054;13.614;2023-02-12T11:00:56;102306.13;;;15.78;29.17
35553;BME280;21656;46.054;13.614;2023-02-12T11:03:28;102306.09;;;15.91;29.87
35553;BME280;21656;46.054;13.614;2023-02-12T11:05:53;102303.56;;;16.00;29.46
35553;BME280;21656;46.054;13.614;2023-02-12T11:13:34;102309.47;;;16.42;28.54
35553;BME280;21656;46.054;13.614;2023-02-12T11:16:00;102305.72;;;16.56;28.70
35553;BME280;21656;46.054;13.614;2023-02-12T11:18:28;102311.03;;;16.82;27.52
35553;BME280;21656;46.054;13.614;2023-02-12T11:26:06;102306.00;;;17.00;27.28
35553;BME280;21656;46.054;13.614;2023-02-12T11:28:34;102305.41;;;17.19;27.38
35553;BME280;21656;46.054;13.614;2023-02-12T11:31:01;102303.34;;;17.33;27.72
35553;BME280;21656;46.054;13.614;2023-02-12T11:33:28;102297.53;;;17.72;26.52
35553;BME280;21656;46.054;13.614;2023-02-12T11:36:15;102299.38;;;17.71;26.31
35553;BME280;21656;46.054;13.614;2023-02-12T11:38:52;102285.53;;;17.63;27.22
35553;BME280;21656;46.054;13.614;2023-02-12T11:41:39;102293.19;;;18.03;27.29
35553;BME280;21656;46.054;13.614;2023-02-12T11:44:37;102297.63;;;18.48;26.38
35553;BME280;21656;46.054;13.614;2023-02-12T11:47:07;102287.84;;;18.77;27.04
35553;BME280;21656;46.054;13.614;2023-02-12T11:49:47;102292.72;;;18.95;26.03
35553;BME280;21656;46.054;13.614;2023-02-12T11:52:20;102288.88;;;18.65;25.95
35553;BME280;21656;46.054;13.614;2023-02-12T11:54:48;102289.97;;;18.74;26.47
35553;BME280;21656;46.054;13.614;2023-02-12T11:57:52;102284.28;;;18.77;26.99
35553;BME280;21656;46.054;13.614;2023-02-12T12:00:23;102283.22;;;18.57;26.51
35553;BME280;21656;46.054;13.614;2023-02-12T12:03:06;102269.97;;;18.52;26.57
35553;BME280;21656;46.054;13.614;2023-02-12T12:05:39;102279.53;;;18.47;27.79
35553;BME280;21656;46.054;13.614;2023-02-12T12:08:14;102282.00;;;18.82;26.68
35553;BME280;21656;46.054;13.614;2023-02-12T12:19:46;102293.88;;;18.92;26.71
35553;BME280;21656;46.054;13.614;2023-02-12T12:25:09;102288.88;;;18.76;26.24
35553;BME280;21656;46.054;13.614;2023-02-12T12:27:53;102281.69;;;18.64;26.37
35553;BME280;21656;46.054;13.614;2023-02-12T12:33:57;102287.63;;;18.37;27.15
35553;BME280;21656;46.054;13.614;2023-02-12T12:38:49;102287.03;;;18.33;26.90
35553;BME280;21656;46.054;13.614;2023-02-12T12:41:42;102286.13;;;18.44;27.25
35553;BME280;21656;46.054;13.614;2023-02-12T12:55:02;102272.69;;;18.84;26.70
35553;BME280;21656;46.054;13.614;2023-02-12T12:58:12;102279.91;;;18.74;26.48
35553;BME280;21656;46.054;13.614;2023-02-12T13:00:51;102282.38;;;18.98;26.29
35553;BME280;21656;46.054;13.614;2023-02-12T13:06:22;102273.13;;;18.69;27.58
35553;BME280;21656;46.054;13.614;2023-02-12T13:09:33;102267.34;;;18.83;26.97
35553;BME280;21656;46.054;13.614;2023-02-12T13:13:05;102265.50;;;19.35;27.07
35553;BME280;21656;46.054;13.614;2023-02-12T13:28:43;102275.03;;;18.57;28.66
35553;BME280;21656;46.054;13.614;2023-02-12T13:31:14;102279.28;;;18.50;27.79
35553;BME280;21656;46.054;13.614;2023-02-12T13:33:46;102283.69;;;18.30;27.47
35553;BME280;21656;46.054;13.614;2023-02-12T13:36:14;102282.13;;;18.16;28.33
35553;BME280;21656;46.054;13.614;2023-02-12T13:38:44;102275.34;;;17.76;28.48
35553;BME280;21656;46.054;13.614;2023-02-12T13:41:12;102273.75;;;17.51;29.30
35553;BME280;21656;46.054;13.614;2023-02-12T13:43:41;102284.03;;;17.25;29.59
35553;BME280;21656;46.054;13.614;2023-02-12T13:46:35;102286.47;;;17.06;28.86
35553;BME280;21656;46.054;13.614;2023-02-12T13:51:48;102288.47;;;16.68;30.70
35553;BME280;21656;46.054;13.614;2023-02-12T13:57:13;102283.34;;;15.92;31.12
35553;BME280;21656;46.054;13.614;2023-02-12T13:59:44;102283.84;;;15.73;31.93
35553;BME280;21656;46.054;13.614;2023-02-12T14:04:59;102280.81;;;15.39;32.31
35553;BME280;21656;46.054;13.614;2023-02-12T14:07:56;102291.38;;;15.18;33.22
35553;BME280;21656;46.054;13.614;2023-02-12T14:10:31;102292.34;;;15.04;32.90
35553;BME280;21656;46.054;13.614;2023-02-12T14:15:35;102286.22;;;14.75;32.74
35553;BME280;21656;46.054;13.614;2023-02-12T14:20:46;102301.28;;;14.39;33.76
35553;BME280;21656;46.054;13.614;2023-02-12T14:23:27;102301.53;;;14.49;32.98
35553;BME280;21656;46.054;13.614;2023-02-12T14:26:05;102296.31;;;14.46;32.62
35553;BME280;21656;46.054;13.614;2023-02-12T14:29:03;102291.41;;;14.38;33.08
35553;BME280;21656;46.054;13.614;2023-02-12T14:31:37;102302.44;;;14.35;32.58
35553;BME280;21656;46.054;13.614;2023-02-12T14:41:26;102313.34;;;14.21;33.21
35553;BME280;21656;46.054;13.614;2023-02-12T14:46:51;102310.25;;;14.13;32.81
35553;BME280;21656;46.054;13.614;2023-02-12T14:49:26;102316.59;;;13.84;33.44
35553;BME280;21656;46.054;13.614;2023-02-12T14:57:35;102329.69;;;13.63;34.07
35553;BME280;21656;46.054;13.614;2023-02-12T15:02:58;102336.47;;;13.42;34.87
35553;BME280;21656;46.054;13.614;2023-02-12T15:05:30;102338.84;;;13.47;34.61
35553;BME280;21656;46.054;13.614;2023-02-12T15:11:26;102344.38;;;13.31;35.49
35553;BME280;21656;46.054;13.614;2023-02-12T15:14:01;102346.53;;;13.24;35.43
35553;BME280;21656;46.054;13.614;2023-02-12T15:16:40;102350.50;;;13.18;35.46
35553;BME280;21656;46.054;13.614;2023-02-12T15:24:44;102358.16;;;12.96;35.68
35553;BME280;21656;46.054;13.614;2023-02-12T15:27:12;102355.56;;;12.94;35.83
35553;BME280;21656;46.054;13.614;2023-02-12T15:29:46;102357.25;;;12.81;35.70
35553;BME280;21656;46.054;13.614;2023-02-12T15:32:27;102359.66;;;12.71;36.83
35553;BME280;21656;46.054;13.614;2023-02-12T15:34:54;102352.50;;;12.54;37.25
35553;BME280;21656;46.054;13.614;2023-02-12T15:37:28;102357.16;;;12.36;38.72
35553;BME280;21656;46.054;13.614;2023-02-12T15:40:03;102374.75;;;11.96;40.33
35553;BME280;21656;46.054;13.614;2023-02-12T15:45:19;102381.06;;;11.28;43.09
35553;BME280;21656;46.054;13.614;2023-02-12T15:48:17;102372.97;;;10.94;44.36
35553;BME280;21656;46.054;13.614;2023-02-12T15:53:38;102382.88;;;10.20;46.47
35553;BME280;21656;46.054;13.614;2023-02-12T15:56:04;102393.47;;;10.05;46.61
35553;BME280;21656;46.054;13.614;2023-02-12T15:58:51;102399.88;;;9.83;47.59
35553;BME280;21656;46.054;13.614;2023-02-12T16:01:19;102411.34;;;9.68;48.23
35553;BME280;21656;46.054;13.614;2023-02-12T16:03:51;102409.88;;;9.61;48.59
35553;BME280;21656;46.054;13.614;2023-02-12T16:06:19;102411.22;;;9.50;49.51
35553;BME280;21656;46.054;13.614;2023-02-12T16:09:07;102418.53;;;9.26;50.42
35553;BME280;21656;46.054;13.614;2023-02-12T16:11:34;102422.66;;;9.15;50.72
35553;BME280;21656;46.054;13.614;2023-02-12T16:14:03;102416.06;;;8.79;51.79
35553;BME280;21656;46.054;13.614;2023-02-12T16:16:48;102418.22;;;8.71;52.49
35553;BME280;21656;46.054;13.614;2023-02-12T16:21:39;102427.69;;;8.58;53.63
35553;BME280;21656;46.054;13.614;2023-02-12T16:24:10;102428.94;;;8.49;53.94
35553;BME280;21656;46.054;13.614;2023-02-12T16:26:45;102430.06;;;8.43;54.15
35553;BME280;21656;46.054;13.614;2023-02-12T16:29:15;102444.63;;;8.36;54.51
35553;BME280;21656;46.054;13.614;2023-02-12T16:31:51;102445.75;;;8.31;55.09
35553;BME280;21656;46.054;13.614;2023-02-12T16:34:35;102443.59;;;8.17;56.18
35553;BME280;21656;46.054;13.614;2023-02-12T16:37:02;102447.84;;;7.99;56.31
35553;BME280;21656;46.054;13.614;2023-02-12T16:42:36;102470.81;;;7.82;58.00
35553;BME280;21656;46.054;13.614;2023-02-12T16:47:54;102479.50;;;7.64;59.30
35553;BME280;21656;46.054;13.614;2023-02-12T16:50:23;102478.09;;;7.54;60.31
35553;BME280;21656;46.054;13.614;2023-02-12T16:52:58;102479.97;;;7.25;61.00
35553;BME280;21656;46.054;13.614;2023-02-12T16:55:25;102491.91;;;7.16;61.58
35553;BME280;21656;46.054;13.614;2023-02-12T16:57:50;102495.34;;;7.20;62.16
35553;BME280;21656;46.054;13.614;2023-02-12T17:00:16;102508.75;;;7.20;61.83
35553;BME280;21656;46.054;13.614;2023-02-12T17:02:42;102515.53;;;7.04;62.65
35553;BME280;21656;46.054;13.614;2023-02-12T17:05:07;102512.38;;;6.91;63.80
35553;BME280;21656;46.054;13.614;2023-02-12T17:07:34;102519.16;;;6.75;64.09
35553;BME280;21656;46.054;13.614;2023-02-12T17:10:00;102524.97;;;6.59;65.56
35553;BME280;21656;46.054;13.614;2023-02-12T17:12:26;102533.69;;;6.36;66.37
35553;BME280;21656;46.054;13.614;2023-02-12T17:14:52;102537.00;;;6.46;66.33
35553;BME280;21656;46.054;13.614;2023-02-12T17:17:19;102536.06;;;6.47;66.10
35553;BME280;21656;46.054;13.614;2023-02-12T17:19:44;102544.97;;;6.47;66.55
35553;BME280;21656;46.054;13.614;2023-02-12T17:22:21;102542.63;;;6.35;67.48
35553;BME280;21656;46.054;13.614;2023-02-12T17:24:47;102552.53;;;6.33;67.19
35553;BME280;21656;46.054;13.614;2023-02-12T17:27:16;102553.72;;;6.53;67.37
35553;BME280;21656;46.054;13.614;2023-02-12T17:29:42;102561.25;;;6.40;67.88
35553;BME280;21656;46.054;13.614;2023-02-12T17:32:08;102565.94;;;6.32;68.14
35553;BME280;21656;46.054;13.614;2023-02-12T17:34:33;102566.72;;;6.04;69.22
35553;BME280;21656;46.054;13.614;2023-02-12T17:37:02;102575.69;;;6.03;70.69
35553;BME280;21656;46.054;13.614;2023-02-12T17:39:28;102579.50;;;5.93;70.85
35553;BME280;21656;46.054;13.614;2023-02-12T17:41:53;102582.28;;;5.88;71.43
35553;BME280;21656;46.054;13.614;2023-02-12T17:44:19;102576.22;;;5.81;71.15
35553;BME280;21656;46.054;13.614;2023-02-12T17:46:44;102574.78;;;5.68;72.53
35553;BME280;21656;46.054;13.614;2023-02-12T17:49:10;102583.38;;;5.79;72.10
35553;BME280;21656;46.054;13.614;2023-02-12T17:51:35;102581.28;;;5.58;72.87
35553;BME280;21656;46.054;13.614;2023-02-12T17:54:01;102583.88;;;5.61;73.60
35553;BME280;21656;46.054;13.614;2023-02-12T17:56:27;102591.13;;;5.56;74.27
35553;BME280;21656;46.054;13.614;2023-02-12T17:58:52;102584.91;;;5.55;73.91
35553;BME280;21656;46.054;13.614;2023-02-12T18:01:20;102592.88;;;5.57;74.16
35553;BME280;21656;46.054;13.614;2023-02-12T18:03:46;102594.94;;;5.47;75.07
35553;BME280;21656;46.054;13.614;2023-02-12T18:06:12;102602.00;;;5.50;76.20
35553;BME280;21656;46.054;13.614;2023-02-12T18:08:41;102597.72;;;5.41;75.96
35553;BME280;21656;46.054;13.614;2023-02-12T18:11:08;102594.28;;;5.36;76.01
35553;BME280;21656;46.054;13.614;2023-02-12T18:13:34;102600.09;;;5.17;77.37
35553;BME280;21656;46.054;13.614;2023-02-12T18:16:00;102604.75;;;5.08;78.16
35553;BME280;21656;46.054;13.614;2023-02-12T18:18:26;102602.09;;;5.08;78.31
35553;BME280;21656;46.054;13.614;2023-02-12T18:20:51;102610.19;;;5.03;78.92
35553;BME280;21656;46.054;13.614;2023-02-12T18:23:17;102613.69;;;5.07;78.93
35553;BME280;21656;46.054;13.614;2023-02-12T18:25:43;102618.13;;;5.06;78.73
35553;BME280;21656;46.054;13.614;2023-02-12T18:28:09;102610.38;;;4.95;79.27
35553;BME280;21656;46.054;13.614;2023-02-12T18:30:36;102615.97;;;4.83;80.53
35553;BME280;21656;46.054;13.614;2023-02-12T18:33:06;102618.59;;;4.86;80.73
35553;BME280;21656;46.054;13.614;2023-02-12T18:35:32;102616.03;;;4.82;81.88
35553;BME280;21656;46.054;13.614;2023-02-12T18:37:58;102616.88;;;4.84;81.80
35553;BME280;21656;46.054;13.614;2023-02-12T18:40:23;102624.84;;;4.85;81.88
35553;BME280;21656;46.054;13.614;2023-02-12T18:42:50;102627.59;;;4.82;81.08
35553;BME280;21656;46.054;13.614;2023-02-12T18:45:16;102624.16;;;4.75;81.86
35553;BME280;21656;46.054;13.614;2023-02-12T18:47:41;102630.53;;;4.68;82.36
35553;BME280;21656;46.054;13.614;2023-02-12T18:50:07;102637.34;;;4.40;85.29
35553;BME280;21656;46.054;13.614;2023-02-12T18:52:33;102638.13;;;4.46;85.09
35553;BME280;21656;46.054;13.614;2023-02-12T18:54:58;102633.50;;;4.53;84.05
35553;BME280;21656;46.054;13.614;2023-02-12T18:57:24;102639.00;;;4.45;84.83
35553;BME280;21656;46.054;13.614;2023-02-12T18:59:50;102644.34;;;4.45;85.02
35553;BME280;21656;46.054;13.614;2023-02-12T19:02:16;102645.25;;;4.44;85.57
35553;BME280;21656;46.054;13.614;2023-02-12T19:04:41;102644.41;;;4.44;85.65
35553;BME280;21656;46.054;13.614;2023-02-12T19:07:06;102655.28;;;4.31;86.24
35553;BME280;21656;46.054;13.614;2023-02-12T19:09:32;102650.13;;;4.22;87.22
35553;BME280;21656;46.054;13.614;2023-02-12T19:11:58;102657.25;;;4.23;87.23
35553;BME280;21656;46.054;13.614;2023-02-12T19:14:24;102652.72;;;4.27;86.90
35553;BME280;21656;46.054;13.614;2023-02-12T19:16:51;102659.00;;;4.23;88.12
35553;BME280;21656;46.054;13.614;2023-02-12T19:19:18;102654.06;;;4.01;89.78
35553;BME280;21656;46.054;13.614;2023-02-12T19:21:45;102657.03;;;3.84;90.29
35553;BME280;21656;46.054;13.614;2023-02-12T19:24:13;102659.66;;;3.87;91.65
35553;BME280;21656;46.054;13.614;2023-02-12T19:26:39;102658.75;;;3.87;91.36
35553;BME280;21656;46.054;13.614;2023-02-12T19:29:05;102668.59;;;3.83;91.74
35553;BME280;21656;46.054;13.614;2023-02-12T19:31:33;102663.31;;;3.80;91.74
35553;BME280;21656;46.054;13.614;2023-02-12T19:34:02;102662.66;;;3.67;92.33
35553;BME280;21656;46.054;13.614;2023-02-12T19:36:30;102663.66;;;3.60;93.14
35553;BME280;21656;46.054;13.614;2023-02-12T19:38:57;102661.03;;;3.57;93.79
35553;BME280;21656;46.054;13.614;2023-02-12T19:41:24;102664.75;;;3.47;95.10
35553;BME280;21656;46.054;13.614;2023-02-12T19:43:54;102666.31;;;3.60;94.44
35553;BME280;21656;46.054;13.614;2023-02-12T19:46:20;102667.28;;;3.55;94.11
35553;BME280;21656;46.054;13.614;2023-02-12T19:48:46;102667.19;;;3.59;94.56
35553;BME280;21656;46.054;13.614;2023-02-12T19:51:17;102669.09;;;3.51;95.63
35553;BME280;21656;46.054;13.614;2023-02-12T19:53:44;102674.25;;;3.63;94.81
35553;BME280;21656;46.054;13.614;2023-02-12T19:56:10;102681.63;;;3.46;96.83
35553;BME280;21656;46.054;13.614;2023-02-12T19:58:36;102675.34;;;3.50;97.12
35553;BME280;21656;46.054;13.614;2023-02-12T20:01:10;102682.47;;;3.48;95.91
35553;BME280;21656;46.054;13.614;2023-02-12T20:03:38;102687.81;;;3.48;96.22
35553;BME280;21656;46.054;13.614;2023-02-12T20:06:06;102679.81;;;3.50;95.88
35553;BME280;21656;46.054;13.614;2023-02-12T20:08:35;102684.34;;;3.43;95.95
35553;BME280;21656;46.054;13.614;2023-02-12T20:11:12;102688.84;;;3.38;96.36
35553;BME280;21656;46.054;13.614;2023-02-12T20:13:38;102689.66;;;3.44;96.55
35553;BME280;21656;46.054;13.614;2023-02-12T20:16:05;102680.94;;;3.32;96.95
35553;BME280;21656;46.054;13.614;2023-02-12T20:18:31;102690.75;;;3.28;98.18
35553;BME280;21656;46.054;13.614;2023-02-12T20:20:56;102691.69;;;3.27;97.94
35553;BME280;21656;46.054;13.614;2023-02-12T20:23:22;102696.41;;;3.07;99.43
35553;BME280;21656;46.054;13.614;2023-02-12T20:25:47;102692.94;;;3.00;99.85
35553;BME280;21656;46.054;13.614;2023-02-12T20:28:13;102691.84;;;3.13;100.00
35553;BME280;21656;46.054;13.614;2023-02-12T20:30:40;102699.97;;;3.04;100.00
35553;BME280;21656;46.054;13.614;2023-02-12T20:33:06;102711.66;;;2.94;100.00
35553;BME280;21656;46.054;13.614;2023-02-12T20:35:31;102697.44;;;2.93;100.00
35553;BME280;21656;46.054;13.614;2023-02-12T20:37:57;102710.78;;;2.92;100.00
35553;BME280;21656;46.054;13.614;2023-02-12T20:40:22;102716.16;;;2.89;100.00
35553;BME280;21656;46.054;13.614;2023-02-12T20:42:48;102716.16;;;2.86;100.00
35553;BME280;21656;46.054;13.614;2023-02-12T20:45:13;102719.69;;;2.88;100.00
35553;BME280;21656;46.054;13.614;2023-02-12T20:47:39;102722.31;;;2.91;100.00
35553;BME280;21656;46.054;13.614;2023-02-12T20:50:04;102728.59;;;2.85;100.00
35553;BME280;21656;46.054;13.614;2023-02-12T20:52:30;102714.47;;;2.78;100.00
35553;BME280;21656;46.054;13.614;2023-02-12T20:54:56;102725.09;;;2.80;100.00
35553;BME280;21656;46.054;13.614;2023-02-12T20:57:23;102720.84;;;2.65;100.00
35553;BME280;21656;46.054;13.614;2023-02-12T20:59:48;102722.53;;;2.74;100.00
35553;BME280;21656;46.054;13.614;2023-02-12T21:02:15;102725.25;;;2.69;100.00
35553;BME280;21656;46.054;13.614;2023-02-12T21:04:40;102728.16;;;2.46;100.00
35553;BME280;21656;46.054;13.614;2023-02-12T21:07:06;102730.81;;;2.46;100.00
35553;BME280;21656;46.054;13.614;2023-02-12T21:09:31;102730.81;;;2.45;100.00
35553;BME280;21656;46.054;13.614;2023-02-12T21:11:57;102718.28;;;2.56;100.00
35553;BME280;21656;46.054;13.614;2023-02-12T21:14:23;102717.47;;;2.48;100.00
35553;BME280;21656;46.054;13.614;2023-02-12T21:16:52;102730.81;;;2.46;100.00
35553;BME280;21656;46.054;13.614;2023-02-12T21:19:18;102722.75;;;2.52;100.00
35553;BME280;21656;46.054;13.614;2023-02-12T21:21:44;102725.41;;;2.54;100.00
35553;BME280;21656;46.054;13.614;2023-02-12T21:24:13;102723.69;;;2.45;100.00
35553;BME280;21656;46.054;13.614;2023-02-12T21:26:39;102730.84;;;2.42;100.00
35553;BME280;21656;46.054;13.614;2023-02-12T21:29:05;102726.47;;;2.33;100.00
35553;BME280;21656;46.054;13.614;2023-02-12T21:31:36;102729.94;;;2.44;100.00
35553;BME280;21656;46.054;13.614;2023-02-12T21:34:04;102734.50;;;2.31;100.00
35553;BME280;21656;46.054;13.614;2023-02-12T21:36:32;102729.19;;;2.30;100.00
35553;BME280;21656;46.054;13.614;2023-02-12T21:38:58;102725.84;;;2.08;100.00
35553;BME280;21656;46.054;13.614;2023-02-12T21:41:28;102731.03;;;2.22;100.00
35553;BME280;21656;46.054;13.614;2023-02-12T21:44:01;102723.09;;;2.19;100.00
35553;BME280;21656;46.054;13.614;2023-02-12T21:46:27;102727.56;;;2.12;100.00
35553;BME280;21656;46.054;13.614;2023-02-12T21:48:54;102740.81;;;2.16;100.00
35553;BME280;21656;46.054;13.614;2023-02-12T21:51:28;102734.53;;;2.25;100.00
35553;BME280;21656;46.054;13.614;2023-02-12T21:53:58;102735.44;;;2.24;100.00
35553;BME280;21656;46.054;13.614;2023-02-12T21:56:25;102736.31;;;2.26;100.00
